Steptoe Valley WMA, Nevada Weather observations

Data are for 10 minute period ending at time listed.
 Day   Time   Solar   Ave.   Ave.  Ave.  Vector  Max.   Baro.   Total    
  of    of     Rad.   Air    Rel.  Wind   Wind   Wind  Press.  Precip.   
Year   Day            Temp.  Hum.  Speed  Dir.   Gust                    
2014   (PST)  Kw/m2    F      %     mph   deg.    mph    mb.     in.     
-------------------------------------------------------------------------
 358    2:00   0.00   20.9    82    5.0   170     8.0   805.4    0.00 
 358    2:10   0.00   19.1    82    4.3   181     5.6   805.4    0.00 
 358    2:20   0.00   16.8    86    4.2   165     5.4   805.4    0.00 
 358    2:30   0.00   16.6    87    4.1   181     5.9   805.2    0.00 
 358    2:40   0.00   16.2    88    3.0   174     4.2   805.1    0.00 
 358    2:50   0.00   15.9    88    3.8   175     5.3   805.0    0.00 
 358    3:00   0.00   16.6    88    3.8   176     5.1   805.0    0.00 
 358    3:10   0.00   16.2    87    3.4   171     4.8   805.0    0.00 
 358    3:20   0.00   15.7    88    4.0   165     5.6   804.8    0.00 
 358    3:30   0.00   15.3    88    3.8   168     5.1   804.8    0.00 
 358    3:40   0.00   15.5    89    3.3   162     5.6   804.8    0.00 
 358    3:50   0.00   17.9    90    4.0   149     7.3   804.6    0.00 
 358    4:00   0.00   19.4    86    4.5   178     6.9   804.4    0.00 
 358    4:10   0.00   18.9    84    3.4   186     5.5   804.4    0.00 
 358    4:20   0.00   17.1    85    3.2   167     5.3   804.4    0.00 
 358    4:30   0.00   17.3    88    4.0   173     5.0   804.4    0.00 
 358    4:40   0.00   17.9    87    3.2   176     4.7   804.3    0.00 
 358    4:50   0.00   17.7    87    2.9   173     5.6   804.0    0.00 
 358    5:00   0.00   16.6    86    3.3   172     5.3   803.8    0.00 
 358    5:10   0.00   17.1    88    5.3   177     7.5   803.7    0.00 
 358    5:20   0.00   17.4    88    5.1   178     7.7   803.4    0.00 
 358    5:30   0.00   16.9    88    3.9   178     5.9   803.2    0.00 
 358    5:40   0.00   16.6    88    3.4   170     6.4   803.3    0.00 
 358    5:50   0.00   17.0    89    3.9   161     5.6   803.1    0.00 
 358    6:00   0.00   19.3    87    3.2   165     6.3   803.0    0.00 
 358    6:10   0.00   18.4    85    3.4   170     5.1   803.1    0.00 
 358    6:20   0.00   17.4    85    2.3   199     3.7   803.3    0.00 
 358    6:30   0.00   16.5    85    3.3   165     5.0   803.4    0.00 
 358    6:40   0.00   15.2    86    2.4   176     4.8   803.2    0.00 
 358    6:50   0.00   15.2    88    3.4   166     5.6   803.1    0.00 
 358    7:00   0.01   16.3    88    3.9   158     5.5   803.0    0.00 
 358    7:10   0.01   17.9    89    3.5   158     5.0   802.9    0.00 
 358    7:20   0.02   19.3    86    2.8   143     5.0   802.7    0.00 
 358    7:30   0.03   20.2    86    3.2   145     6.3   802.5    0.00 
 358    7:40   0.04   22.1    83    3.0   173     4.8   802.4    0.00 
 358    7:50   0.06   21.7    84    2.7   154     7.7   802.3    0.00 
 358    8:00   0.09   24.7    82    5.5   161     8.7   802.1    0.00 
 358    8:10   0.10   26.5    79    5.4   173     8.0   802.0    0.00 
 358    8:20   0.10   26.8    81    4.5   176     7.5   801.9    0.00 
 358    8:30   0.09   25.7    83    4.7   165     6.6   801.8    0.00 
 358    8:40   0.12   25.9    83    5.8   170     8.6   801.8    0.00 
 358    8:50   0.17   28.2    80    5.1   170     7.5   801.7    0.00 
 358    9:00   0.25   30.5    78    4.0   167     5.8   801.7    0.00 
 358    9:10   0.24   32.2    78    3.8   180     5.5   801.6    0.00 
 358    9:20   0.18   33.2    77    4.2   182     6.3   801.6    0.00 
 358    9:30   0.18   34.4    76    3.9   167    11.2   801.5    0.00 
 358    9:40   0.19   38.7    59    7.3   153    11.5   801.4    0.00 
 358    9:50   0.19   39.6    56    8.2   147    12.6   801.1    0.00 
 358   10:00   0.17   40.0    54    8.1   142    13.2   800.7    0.00 
 358   10:10   0.16   40.3    54    8.4   146    11.9   800.8    0.00 
 358   10:20   0.17   40.5    54    8.4   154    13.0   800.3    0.00 
 358   10:30   0.18   40.6    52   10.3   149    15.2   799.8    0.00 
 358   10:40   0.19   40.8    51   10.2   144    16.7   799.5    0.00 
 358   10:50   0.28   40.9    50   11.0   144    16.4   799.4    0.00 
 358   11:00   0.25   41.2    49   11.7   142    17.4   799.2    0.00 
 358   11:10   0.19   40.6    50   11.2   144    16.6   799.1    0.00 
 358   11:20   0.16   40.3    50   10.8   143    17.8   798.7    0.00 
 358   11:30   0.15   40.0    51    9.9   145    14.6   798.3    0.00 
 358   11:40   0.14   40.4    52    9.4   145    14.2   798.1    0.00 
 358   11:50   0.17   40.8    52    9.1   153    15.1   798.1    0.00 
 358   12:00   0.22   41.4    51    9.4   148    14.5   797.7    0.00 
 358   12:10   0.20   41.4    51   10.1   145    16.2   797.5    0.00 
 358   12:20   0.20   41.5    50   10.6   145    15.5   797.3    0.00 
 358   12:30   0.17   41.8    51    9.6   152    14.7   796.9    0.00 
 358   12:40   0.17   42.0    50    8.7   154    15.0   796.8    0.00 
 358   12:50   0.14   42.2    50    9.3   157    14.5   796.7    0.00 
 358   13:00   0.12   41.8    50   10.7   166    16.4   796.3    0.00 
 358   13:10   0.15   41.5    50   12.5   153    18.9   796.1    0.00 
 358   13:20   0.16   42.0    49   12.7   153    17.7   795.7    0.00 
 358   13:30   0.11   41.9    49   10.3   156    16.7   795.5    0.00 
 358   13:40   0.12   41.6    50    9.6   157    14.8   795.5    0.00 
 358   13:50   0.12   41.7    50   10.5   156    16.9   795.4    0.00 
 358   14:00   0.12   41.0    51   11.4   150    15.7   795.0    0.00 
 358   14:10   0.11   41.1    52   11.4   145    17.8   794.9    0.00 
 358   14:20   0.08   40.3    52   14.6   145    23.8   794.6    0.00 
 358   14:30   0.07   39.2    52   15.9   155    22.8   794.3    0.00 
 358   14:40   0.07   39.2    52   14.2   153    21.5   794.3    0.00 
 358   14:50   0.05   39.3    52   13.4   153    18.5   794.0    0.00 
 358   15:00   0.06   39.3    52   15.0   151    24.4   793.8    0.00 
 358   15:10   0.10   39.6    52   13.2   150    19.2   793.7    0.00 
 358   15:20   0.07   39.6    52   12.8   146    18.6   793.4    0.00 
 358   15:30   0.06   39.0    53   14.4   142    21.5   793.1    0.00 
 358   15:40   0.04   38.2    54   14.5   150    26.0   792.8    0.00 
 358   15:50   0.03   37.6    54   18.0   147    24.8   792.5    0.00 
 358   16:00   0.02   37.0    55   17.3   144    26.8   792.3    0.00 
 358   16:10   0.03   36.9    56   16.3   145    23.4   792.1    0.00 
 358   16:20   0.02   36.8    56   16.8   146    23.6   791.7    0.00 
 358   16:30   0.01   36.5    56   16.2   146    23.1   791.4    0.00 
 358   16:40   0.00   36.1    57   15.9   147    22.5   791.2    0.00 
 358   16:50   0.00   35.5    58   14.7   145    20.9   791.1    0.00 
 358   17:00   0.00   34.9    57   16.0   151    23.8   790.9    0.00 
 358   17:10   0.00   34.4    58   16.7   150    22.1   790.6    0.00 
 358   17:20   0.00   34.0    59   15.5   146    21.5   790.4    0.00 
 358   17:30   0.00   33.8    59   14.5   150    21.3   790.2    0.00 
 358   17:40   0.00   33.8    60   14.2   145    21.5   790.0    0.00 
 358   17:50   0.00   34.1    59   14.0   145    20.6   789.8    0.00 
 358   18:00   0.00   34.8    58   15.3   142    22.9   789.5    0.00 
 358   18:10   0.00   34.7    57   15.8   139    24.6   789.3    0.00 
 358   18:20   0.00   34.3    58   14.3   142    21.3   789.1    0.00 
 358   18:30   0.00   34.4    58   15.4   137    25.4   789.1    0.00 
 358   18:40   0.00   34.2    58   13.7   141    21.0   788.9    0.00 
 358   18:50   0.00   34.3    58   14.6   136    21.0   788.6    0.00 
 358   19:00   0.00   33.9    59   13.2   145    18.4   788.5    0.00 
 358   19:10   0.00   33.7    60   12.0   153    22.1   788.4    0.00 
 358   19:20   0.00   34.0    59   13.9   152    23.0   788.0    0.00 
 358   19:30   0.00   33.9    59   13.0   147    18.9   787.8    0.00 
 358   19:40   0.00   33.8    60   13.9   150    21.9   787.7    0.00 
 358   19:50   0.00   33.7    60   14.5   139    20.2   787.5    0.00 
 358   20:00   0.00   32.8    61   14.5   141    22.8   787.3    0.00 
 358   20:10   0.00   32.0    63   12.9   143    20.3   787.1    0.00 
 358   20:20   0.00   31.6    64   13.5   147    19.1   786.9    0.00 
 358   20:30   0.00   31.9    64   14.2   149    20.2   787.1    0.00 
 358   20:40   0.00   31.7    64   15.9   151    25.0   786.8    0.00 
 358   20:50   0.00   31.7    64   15.4   156    24.7   786.7    0.00 
 358   21:00   0.00   31.7    64   16.1   157    24.4   786.6    0.00 
 358   21:10   0.00   30.8    66   16.8   153    23.8   786.4    0.00 
 358   21:20   0.00   30.7    66   15.5   153    25.9   786.3    0.00 
 358   21:30   0.00   31.5    67   10.8   170    26.3   786.4    0.00 
 358   21:40   0.00   33.1    68   14.2   297    24.4   787.8    0.00 
 358   21:50   0.00   29.7    86    8.8   280    14.4   788.2    0.00 
 358   22:00   0.00   29.6    89    9.5   248    17.0   788.4    0.00 
 358   22:10   0.00   28.7    90    6.3   258    12.6   788.7    0.00 
 358   22:20   0.00   28.7    92    3.1   328     9.6   788.4    0.00 
 358   22:30   0.00   28.4    92    5.5     4     8.3   788.3    0.00 
 358   22:40   0.00   28.1    93    5.3    14     8.8   788.3    0.00 
 358   22:50   0.00   27.8    93    4.7    23     7.2   788.1    0.00 
 358   23:00   0.00   27.8    92    7.7    40    11.5   787.9    0.00 
 358   23:10   0.00   28.0    91    4.5    26     7.6   787.9    0.00 
 358   23:20   0.00   28.2    89    6.9     1    13.5   787.9    0.00 
 358   23:30   0.00   28.2    89    5.5   343     9.2   787.8    0.00 
 358   23:40   0.00   28.1    89    3.4   355     5.3   787.9    0.00 
 358   23:50   0.00   28.0    90    5.9   337    10.3   787.9    0.00 
 359    0:00   0.00   27.3    91   13.3   332    28.6   788.3    0.00 
 359    0:10   0.00   25.5    91   15.8   330    22.5   788.3    0.00 
 359    0:20   0.00   25.3    89   12.9   329    24.1   788.4    0.00 
 359    0:30   0.00   25.5    82   12.8   331    18.6   788.4    0.00 
 359    0:40   0.00   25.4    78   12.5   338    20.6   788.4    0.00 
 359    0:50   0.00   25.2    78   12.2   348    18.5   788.5    0.00 
 359    1:00   0.00   24.9    78   11.6   329    16.0   788.8    0.00 
 359    1:10   0.00   24.5    77   12.9   323    19.1   788.9    0.00 
 359    1:20   0.00   24.3    76   14.7   317    23.5   789.0    0.00 
 359    1:30   0.00   24.2    75   14.9   316    24.8   789.3    0.00 
 359    1:40   0.00   24.0    76   12.3   318    21.2   789.4    0.00 
 359    1:50   0.00   23.4    77   10.0   316    13.3   789.5    0.00 

Return to Steptoe Valley WMA graphs page.


Western Regional Climate Center,wrcc@dri.edu